Time;durP1;ratioP1;P1;durP2;ratioP2;P2;SDS_P1;SDS_P2;PMS_P1;PMS_P2;Temp;Humidity;BMP_temperature;BMP_pressure;BME280_temperature;BME280_humidity;BME280_pressure;Samples;Min_cycle;Max_cycle;Signal;HPM_P1;HPM_P2
2021/04/29 00:01:50;;;;;;;0.10;0.10;;;;;;;;;;5033355;28;20053;-70
2021/04/29 00:04:16;;;;;;;0.10;0.10;;;;;;;;;;5023782;28;20021;-70
2021/04/29 00:06:41;;;;;;;0.10;0.10;;;;;;;;;;5036906;28;20026;-70
2021/04/29 00:09:06;;;;;;;0.10;0.10;;;;;;;;;;5052041;28;20017;-70
2021/04/29 00:11:32;;;;;;;0.10;0.10;;;;;;;;;;5052075;28;20263;-71
2021/04/29 00:13:57;;;;;;;0.10;0.10;;;;;;;;;;5052007;28;20401;-71
2021/04/29 00:16:22;;;;;;;0.10;0.10;;;;;;;;;;5051770;28;20052;-71
2021/04/29 00:18:48;;;;;;;0.10;0.10;;;;;;;;;;5042872;28;20748;-71
2021/04/29 00:21:13;;;;;;;0.03;0.03;;;;;;;;;;5038746;28;20272;-71
2021/04/29 00:23:38;;;;;;;0.10;0.10;;;;;;;;;;5035200;28;20353;-71
2021/04/29 00:26:03;;;;;;;0.10;0.10;;;;;;;;;;5049365;28;20306;-71
2021/04/29 00:28:28;;;;;;;0.10;0.10;;;;;;;;;;5018111;28;20059;-71
2021/04/29 00:30:54;;;;;;;0.10;0.10;;;;;;;;;;5049037;28;20263;-71
2021/04/29 00:33:19;;;;;;;0.10;0.10;;;;;;;;;;5051970;28;20297;-71
2021/04/29 00:35:44;;;;;;;0.00;0.00;;;;;;;;;;5035224;28;20328;-71
2021/04/29 00:38:09;;;;;;;0.10;0.10;;;;;;;;;;5051585;28;20094;-71
2021/04/29 00:40:34;;;;;;;0.00;0.00;;;;;;;;;;5051834;28;20028;-71
2021/04/29 00:43:00;;;;;;;0.10;0.10;;;;;;;;;;5034933;28;20039;-71
2021/04/29 00:45:25;;;;;;;0.10;0.10;;;;;;;;;;5035027;28;20264;-71
2021/04/29 00:47:50;;;;;;;0.10;0.10;;;;;;;;;;5035038;28;20021;-72
2021/04/29 00:50:16;;;;;;;0.10;0.10;;;;;;;;;;5051806;28;20259;-72
2021/04/29 00:52:41;;;;;;;0.10;0.10;;;;;;;;;;5054886;28;20524;-71
2021/04/29 00:55:06;;;;;;;0.10;0.10;;;;;;;;;;5046627;28;20075;-72
2021/04/29 00:57:32;;;;;;;0.10;0.10;;;;;;;;;;5018819;28;20076;-72
2021/04/29 00:59:59;;;;;;;0.10;0.10;;;;;;;;;;5045597;28;20075;-72
2021/04/29 01:02:24;;;;;;;0.10;0.10;;;;;;;;;;5019336;28;20033;-72
2021/04/29 01:05:00;;;;;;;0.10;0.10;;;;;;;;;;5048395;28;20021;-71
2021/04/29 01:07:26;;;;;;;0.10;0.10;;;;;;;;;;5055239;28;20056;-72
2021/04/29 01:09:54;;;;;;;0.10;0.10;;;;;;;;;;5053359;28;20067;-72
2021/04/29 01:12:20;;;;;;;0.10;0.10;;;;;;;;;;5036668;28;20064;-72
2021/04/29 01:14:45;;;;;;;0.10;0.10;;;;;;;;;;5036659;28;20025;-72
2021/04/29 01:17:11;;;;;;;0.10;0.10;;;;;;;;;;5018632;28;20029;-72
2021/04/29 01:19:39;;;;;;;0.10;0.10;;;;;;;;;;5018540;28;20025;-72
2021/04/29 01:22:04;;;;;;;0.10;0.10;;;;;;;;;;5018489;28;20104;-72
2021/04/29 01:24:30;;;;;;;0.10;0.10;;;;;;;;;;5019377;28;20044;-72
2021/04/29 01:27:00;;;;;;;0.10;0.10;;;;;;;;;;5054878;28;20083;-72
2021/04/29 01:29:27;;;;;;;0.10;0.10;;;;;;;;;;5031655;28;20276;-72
2021/04/29 01:31:52;;;;;;;0.10;0.10;;;;;;;;;;5028275;28;20386;-72
2021/04/29 01:34:18;;;;;;;0.10;0.10;;;;;;;;;;5056521;28;20017;-72
2021/04/29 01:36:44;;;;;;;0.10;0.10;;;;;;;;;;5024852;28;20041;-72
2021/04/29 01:39:09;;;;;;;0.10;0.10;;;;;;;;;;5037893;28;20024;-72
2021/04/29 01:41:35;;;;;;;0.10;0.10;;;;;;;;;;5037885;28;20078;-72
2021/04/29 01:44:00;;;;;;;0.10;0.10;;;;;;;;;;5051325;28;20025;-72
2021/04/29 01:46:25;;;;;;;0.10;0.10;;;;;;;;;;5026490;28;20021;-72
2021/04/29 01:48:51;;;;;;;0.10;0.10;;;;;;;;;;5037752;28;20019;-73
2021/04/29 01:51:16;;;;;;;0.10;0.10;;;;;;;;;;5047585;28;20620;-71
2021/04/29 01:53:41;;;;;;;0.10;0.10;;;;;;;;;;5051521;28;20025;-71
2021/04/29 01:56:06;;;;;;;0.10;0.10;;;;;;;;;;5044925;28;20267;-71
2021/04/29 01:58:31;;;;;;;0.10;0.10;;;;;;;;;;5024953;28;20377;-71
2021/04/29 02:00:57;;;;;;;0.10;0.10;;;;;;;;;;5045800;28;20357;-71
2021/04/29 02:03:22;;;;;;;0.10;0.10;;;;;;;;;;5049812;28;20047;-71
2021/04/29 02:05:47;;;;;;;0.10;0.10;;;;;;;;;;5041520;28;20419;-71
2021/04/29 02:08:12;;;;;;;0.10;0.10;;;;;;;;;;5023600;28;20266;-71
2021/04/29 02:10:38;;;;;;;0.10;0.10;;;;;;;;;;5047858;28;20248;-72
2021/04/29 02:13:07;;;;;;;0.10;0.10;;;;;;;;;;5031975;28;20691;-72
2021/04/29 02:15:34;;;;;;;0.10;0.10;;;;;;;;;;5037095;28;20031;-72
2021/04/29 02:18:07;;;;;;;0.00;0.00;;;;;;;;;;5034405;28;20022;-71
2021/04/29 02:20:33;;;;;;;0.10;0.10;;;;;;;;;;5041060;28;20017;-72
2021/04/29 02:22:59;;;;;;;0.10;0.10;;;;;;;;;;5030012;28;20060;-73
2021/04/29 02:25:25;;;;;;;0.10;0.10;;;;;;;;;;5035489;28;20056;-71
2021/04/29 02:27:50;;;;;;;0.10;0.10;;;;;;;;;;5019774;28;20083;-69
2021/04/29 02:30:16;;;;;;;0.10;0.10;;;;;;;;;;5042081;28;20024;-69
2021/04/29 02:32:41;;;;;;;0.10;0.10;;;;;;;;;;5043397;28;20021;-69
2021/04/29 02:35:07;;;;;;;0.10;0.10;;;;;;;;;;5041854;28;20037;-69
2021/04/29 02:37:33;;;;;;;0.10;0.10;;;;;;;;;;5046502;28;20045;-69
2021/04/29 02:39:58;;;;;;;0.10;0.10;;;;;;;;;;5025151;28;20054;-70
2021/04/29 02:42:23;;;;;;;0.10;0.10;;;;;;;;;;5026545;28;20099;-69
2021/04/29 02:44:49;;;;;;;0.10;0.10;;;;;;;;;;5026058;28;20680;-70
2021/04/29 02:47:15;;;;;;;0.10;0.10;;;;;;;;;;5042220;28;20021;-69
2021/04/29 02:49:40;;;;;;;0.10;0.10;;;;;;;;;;5041331;28;20477;-69
2021/04/29 02:52:05;;;;;;;0.10;0.10;;;;;;;;;;5026753;28;20071;-70
2021/04/29 02:54:30;;;;;;;0.10;0.10;;;;;;;;;;5043326;28;20307;-69
2021/04/29 02:56:55;;;;;;;0.10;0.10;;;;;;;;;;5026031;28;20028;-69
2021/04/29 02:59:20;;;;;;;0.10;0.10;;;;;;;;;;5041864;28;20279;-69
2021/04/29 03:01:46;;;;;;;0.00;0.00;;;;;;;;;;5041930;28;20303;-69
2021/04/29 03:04:11;;;;;;;0.10;0.10;;;;;;;;;;5025137;28;20379;-69
2021/04/29 03:06:36;;;;;;;0.10;0.10;;;;;;;;;;5046899;28;20021;-68
2021/04/29 03:09:02;;;;;;;0.10;0.10;;;;;;;;;;5046418;28;20306;-68
2021/04/29 03:11:27;;;;;;;0.10;0.10;;;;;;;;;;5048005;28;20021;-68
2021/04/29 03:13:52;;;;;;;0.10;0.10;;;;;;;;;;5038738;28;20022;-68
2021/04/29 03:16:18;;;;;;;0.07;0.07;;;;;;;;;;5026313;28;20381;-68
2021/04/29 03:18:43;;;;;;;0.10;0.10;;;;;;;;;;5042977;28;20275;-68
2021/04/29 03:21:09;;;;;;;0.10;0.10;;;;;;;;;;5042818;28;20111;-69
2021/04/29 03:23:34;;;;;;;0.10;0.10;;;;;;;;;;5024685;28;20714;-69
2021/04/29 03:25:59;;;;;;;0.10;0.10;;;;;;;;;;5041430;28;20777;-68
2021/04/29 03:28:24;;;;;;;0.10;0.10;;;;;;;;;;5026981;28;20047;-68
2021/04/29 03:30:49;;;;;;;0.10;0.10;;;;;;;;;;5040681;28;20267;-68
2021/04/29 03:33:18;;;;;;;0.10;0.10;;;;;;;;;;5040429;28;20280;-67
2021/04/29 03:35:43;;;;;;;0.10;0.10;;;;;;;;;;5041196;28;20338;-68
2021/04/29 03:38:08;;;;;;;0.10;0.10;;;;;;;;;;5040846;28;20457;-68
2021/04/29 03:40:34;;;;;;;0.10;0.10;;;;;;;;;;5040958;28;20272;-68
2021/04/29 03:42:59;;;;;;;0.10;0.10;;;;;;;;;;5040349;28;20028;-68
2021/04/29 03:45:24;;;;;;;0.10;0.10;;;;;;;;;;5026921;28;20027;-68
2021/04/29 03:47:50;;;;;;;0.10;0.10;;;;;;;;;;5025232;28;20036;-68
2021/04/29 03:50:15;;;;;;;0.10;0.10;;;;;;;;;;5040674;28;20293;-68
2021/04/29 03:52:40;;;;;;;0.10;0.10;;;;;;;;;;5023514;28;20263;-69
2021/04/29 03:55:06;;;;;;;0.10;0.10;;;;;;;;;;5042316;28;20032;-68
2021/04/29 03:57:31;;;;;;;0.10;0.10;;;;;;;;;;5023796;28;20633;-68
2021/04/29 03:59:56;;;;;;;0.10;0.10;;;;;;;;;;5040082;28;20028;-68
2021/04/29 04:02:22;;;;;;;0.10;0.10;;;;;;;;;;5025166;28;20275;-68
2021/04/29 04:04:47;;;;;;;0.10;0.10;;;;;;;;;;5042174;28;20020;-68
2021/04/29 04:07:12;;;;;;;0.10;0.10;;;;;;;;;;5041950;28;20053;-68
2021/04/29 04:09:37;;;;;;;0.20;0.20;;;;;;;;;;5024111;28;20091;-68
2021/04/29 04:12:03;;;;;;;0.10;0.10;;;;;;;;;;5042430;28;20370;-68
2021/04/29 04:14:28;;;;;;;0.10;0.10;;;;;;;;;;5040329;28;20264;-68
2021/04/29 04:16:53;;;;;;;0.10;0.10;;;;;;;;;;5042825;28;20097;-68
2021/04/29 04:19:18;;;;;;;0.10;0.10;;;;;;;;;;5022376;28;20018;-68
2021/04/29 04:21:44;;;;;;;0.10;0.10;;;;;;;;;;5038389;28;20621;-68
2021/04/29 04:24:09;;;;;;;0.10;0.10;;;;;;;;;;5021647;28;20024;-68
2021/04/29 04:26:34;;;;;;;0.10;0.10;;;;;;;;;;5023948;28;20031;-68
2021/04/29 04:28:59;;;;;;;0.10;0.10;;;;;;;;;;5046387;28;20462;-68
2021/04/29 04:31:24;;;;;;;0.10;0.10;;;;;;;;;;5044081;28;20276;-68
2021/04/29 04:33:50;;;;;;;0.10;0.10;;;;;;;;;;5042220;28;20741;-68
2021/04/29 04:36:15;;;;;;;0.20;0.20;;;;;;;;;;5043048;28;20513;-68
2021/04/29 04:38:40;;;;;;;0.10;0.10;;;;;;;;;;5027985;28;20028;-68
2021/04/29 04:41:06;;;;;;;0.10;0.10;;;;;;;;;;5046888;28;20286;-68
2021/04/29 04:43:32;;;;;;;0.10;0.10;;;;;;;;;;5036180;28;20382;-68
2021/04/29 04:45:57;;;;;;;0.10;0.10;;;;;;;;;;5029146;28;20044;-68
2021/04/29 04:48:22;;;;;;;0.10;0.10;;;;;;;;;;5028690;28;20017;-68
2021/04/29 04:50:48;;;;;;;0.10;0.10;;;;;;;;;;5050900;28;21731;-68
2021/04/29 04:53:13;;;;;;;0.10;0.10;;;;;;;;;;5051447;28;20021;-68
2021/04/29 04:55:44;;;;;;;0.10;0.10;;;;;;;;;;5051125;28;20059;-69
2021/04/29 04:58:10;;;;;;;0.10;0.10;;;;;;;;;;5037938;28;20028;-68
2021/04/29 05:00:35;;;;;;;0.10;0.10;;;;;;;;;;5055766;28;20527;-68
2021/04/29 05:03:00;;;;;;;0.10;0.10;;;;;;;;;;5055033;28;20279;-68
2021/04/29 05:05:25;;;;;;;0.10;0.10;;;;;;;;;;5051843;28;20017;-67
2021/04/29 05:07:50;;;;;;;0.10;0.10;;;;;;;;;;5050842;28;20284;-68
2021/04/29 05:10:15;;;;;;;0.10;0.10;;;;;;;;;;5049222;28;20260;-68
2021/04/29 05:12:41;;;;;;;0.10;0.10;;;;;;;;;;5048728;28;20329;-68
2021/04/29 05:15:06;;;;;;;0.10;0.10;;;;;;;;;;5046990;28;20056;-67
2021/04/29 05:17:32;;;;;;;0.10;0.10;;;;;;;;;;5047978;28;20104;-68
2021/04/29 05:19:57;;;;;;;0.10;0.10;;;;;;;;;;5028950;28;20021;-68
2021/04/29 05:22:22;;;;;;;0.10;0.10;;;;;;;;;;5028744;28;20079;-68
2021/04/29 05:24:47;;;;;;;0.10;0.10;;;;;;;;;;5044226;28;20761;-68
2021/04/29 05:27:12;;;;;;;0.10;0.10;;;;;;;;;;5026587;28;20280;-68
2021/04/29 05:29:38;;;;;;;0.10;0.10;;;;;;;;;;5048288;28;20040;-68
2021/04/29 05:32:03;;;;;;;0.10;0.10;;;;;;;;;;5043463;28;20017;-68
2021/04/29 05:34:28;;;;;;;0.00;0.00;;;;;;;;;;5043783;28;20461;-68
2021/04/29 05:36:53;;;;;;;0.10;0.10;;;;;;;;;;5043489;28;20075;-68
2021/04/29 05:39:19;;;;;;;0.10;0.10;;;;;;;;;;5042363;28;20017;-69
2021/04/29 05:41:46;;;;;;;0.10;0.10;;;;;;;;;;5044328;28;20667;-69
2021/04/29 05:44:11;;;;;;;0.10;0.10;;;;;;;;;;5036358;28;20310;-69
2021/04/29 05:46:37;;;;;;;0.10;0.10;;;;;;;;;;5044364;28;20021;-68
2021/04/29 05:49:02;;;;;;;0.10;0.10;;;;;;;;;;5025734;28;20021;-69
2021/04/29 05:51:30;;;;;;;0.10;0.10;;;;;;;;;;5027537;28;20029;-68
2021/04/29 05:53:55;;;;;;;0.10;0.10;;;;;;;;;;5042666;28;20025;-68
2021/04/29 05:56:21;;;;;;;0.10;0.10;;;;;;;;;;5046279;28;20465;-68
2021/04/29 05:58:46;;;;;;;0.10;0.10;;;;;;;;;;5040984;28;20100;-68
2021/04/29 06:01:11;;;;;;;0.10;0.10;;;;;;;;;;5045984;28;20029;-69
2021/04/29 06:03:36;;;;;;;0.10;0.10;;;;;;;;;;5042217;28;20364;-68
2021/04/29 06:06:02;;;;;;;0.10;0.10;;;;;;;;;;5044201;28;20100;-69
2021/04/29 06:08:27;;;;;;;0.10;0.10;;;;;;;;;;5024620;28;20043;-68
2021/04/29 06:10:52;;;;;;;0.10;0.10;;;;;;;;;;5042164;28;20112;-68
2021/04/29 06:13:18;;;;;;;0.10;0.10;;;;;;;;;;5043306;28;20033;-68
2021/04/29 06:15:43;;;;;;;0.10;0.10;;;;;;;;;;5044778;28;20259;-68
2021/04/29 06:18:10;;;;;;;0.10;0.10;;;;;;;;;;5041937;28;20488;-68
2021/04/29 06:20:36;;;;;;;0.10;0.10;;;;;;;;;;5026092;28;20275;-69
2021/04/29 06:23:01;;;;;;;0.10;0.10;;;;;;;;;;5045817;28;20389;-68
2021/04/29 06:25:28;;;;;;;0.10;0.10;;;;;;;;;;5026713;28;20032;-68
2021/04/29 06:27:53;;;;;;;0.10;0.10;;;;;;;;;;5042845;28;20104;-68
2021/04/29 06:30:18;;;;;;;0.00;0.00;;;;;;;;;;5043396;28;20502;-69
2021/04/29 06:32:44;;;;;;;0.10;0.10;;;;;;;;;;5041030;28;20032;-68
2021/04/29 06:35:10;;;;;;;0.10;0.10;;;;;;;;;;5025063;28;20025;-69
2021/04/29 06:37:35;;;;;;;0.00;0.00;;;;;;;;;;5028653;28;20409;-69
2021/04/29 06:40:00;;;;;;;0.10;0.10;;;;;;;;;;5041918;28;20013;-69
2021/04/29 06:42:25;;;;;;;0.10;0.10;;;;;;;;;;5040748;28;20489;-69
2021/04/29 06:44:50;;;;;;;0.10;0.10;;;;;;;;;;5025766;28;20362;-69
2021/04/29 06:47:17;;;;;;;0.10;0.10;;;;;;;;;;5026958;28;20368;-68
2021/04/29 06:49:42;;;;;;;0.10;0.10;;;;;;;;;;5043208;28;20024;-68
2021/04/29 06:52:08;;;;;;;0.08;0.08;;;;;;;;;;5024812;28;20033;-68
2021/04/29 06:54:33;;;;;;;0.00;0.00;;;;;;;;;;5042127;28;20018;-68
2021/04/29 06:56:59;;;;;;;0.10;0.10;;;;;;;;;;5042216;28;20322;-69
2021/04/29 06:59:24;;;;;;;0.03;0.03;;;;;;;;;;5027965;28;20295;-68
2021/04/29 07:01:50;;;;;;;0.10;0.10;;;;;;;;;;5028481;28;20027;-69
2021/04/29 07:04:15;;;;;;;0.10;0.10;;;;;;;;;;5039443;28;20021;-69
2021/04/29 07:06:41;;;;;;;0.10;0.10;;;;;;;;;;5041509;28;20470;-68
2021/04/29 07:09:06;;;;;;;0.00;0.00;;;;;;;;;;5039284;28;20302;-69
2021/04/29 07:11:31;;;;;;;0.10;0.10;;;;;;;;;;5042353;28;20346;-69
2021/04/29 07:13:57;;;;;;;0.00;0.00;;;;;;;;;;5029852;28;20067;-69
2021/04/29 07:16:22;;;;;;;0.00;0.00;;;;;;;;;;5041195;28;20017;-66
2021/04/29 07:18:47;;;;;;;0.00;0.00;;;;;;;;;;5032779;28;20067;-66
2021/04/29 07:21:12;;;;;;;0.10;0.10;;;;;;;;;;5030372;28;20025;-68
2021/04/29 07:23:38;;;;;;;0.00;0.00;;;;;;;;;;5023263;28;20025;-67
2021/04/29 07:26:03;;;;;;;0.10;0.10;;;;;;;;;;5028019;28;20029;-67
2021/04/29 07:28:28;;;;;;;0.10;0.10;;;;;;;;;;5050554;28;20017;-67
2021/04/29 07:30:53;;;;;;;0.00;0.00;;;;;;;;;;5030956;28;20767;-68
2021/04/29 07:33:19;;;;;;;0.10;0.10;;;;;;;;;;5039090;28;20029;-74
2021/04/29 07:35:44;;;;;;;0.10;0.10;;;;;;;;;;5042306;28;20030;-74
2021/04/29 07:38:09;;;;;;;0.10;0.10;;;;;;;;;;5040637;28;20287;-74
2021/04/29 07:40:35;;;;;;;0.00;0.00;;;;;;;;;;5043886;28;20299;-74
2021/04/29 07:43:00;;;;;;;0.10;0.10;;;;;;;;;;5027080;28;20116;-74
2021/04/29 07:45:25;;;;;;;0.10;0.10;;;;;;;;;;5026600;28;20045;-74
2021/04/29 07:47:50;;;;;;;0.00;0.00;;;;;;;;;;5042166;28;20017;-74
2021/04/29 07:50:16;;;;;;;0.00;0.00;;;;;;;;;;5042683;28;20066;-75
2021/04/29 07:52:41;;;;;;;0.00;0.00;;;;;;;;;;5041976;28;20800;-75
2021/04/29 07:55:08;;;;;;;0.10;0.10;;;;;;;;;;5039031;28;20096;-75
2021/04/29 07:57:33;;;;;;;0.00;0.00;;;;;;;;;;5041098;28;20821;-75
2021/04/29 07:59:58;;;;;;;0.10;0.10;;;;;;;;;;5024492;28;20029;-75
2021/04/29 08:02:24;;;;;;;0.00;0.00;;;;;;;;;;5041570;28;20067;-74
2021/04/29 08:04:52;;;;;;;0.00;0.00;;;;;;;;;;5042839;28;20024;-75
2021/04/29 08:07:17;;;;;;;0.00;0.00;;;;;;;;;;5045387;28;20032;-75
2021/04/29 08:09:42;;;;;;;0.00;0.00;;;;;;;;;;5045401;28;20359;-75
2021/04/29 08:12:08;;;;;;;0.00;0.00;;;;;;;;;;5026894;28;20757;-74
2021/04/29 08:14:33;;;;;;;0.00;0.00;;;;;;;;;;5045880;28;20266;-73
2021/04/29 08:16:58;;;;;;;0.10;0.10;;;;;;;;;;5040675;28;20017;-73
2021/04/29 08:19:23;;;;;;;0.00;0.00;;;;;;;;;;5023002;28;20082;-73
2021/04/29 08:21:51;;;;;;;0.00;0.00;;;;;;;;;;5024216;28;20079;-74
2021/04/29 08:24:16;;;;;;;0.00;0.00;;;;;;;;;;5039858;28;20279;-74
2021/04/29 08:26:41;;;;;;;0.00;0.00;;;;;;;;;;5023073;28;20017;-74
2021/04/29 08:29:07;;;;;;;0.00;0.00;;;;;;;;;;5041680;28;20838;-74
2021/04/29 08:31:32;;;;;;;0.00;0.00;;;;;;;;;;5023706;28;20049;-74
2021/04/29 08:33:57;;;;;;;0.00;0.00;;;;;;;;;;5037887;28;20097;-74
2021/04/29 08:36:22;;;;;;;0.00;0.00;;;;;;;;;;5040358;28;20044;-74
2021/04/29 08:38:48;;;;;;;0.00;0.00;;;;;;;;;;5041080;28;20271;-74
2021/04/29 08:41:14;;;;;;;0.00;0.00;;;;;;;;;;5024545;28;20789;-73
2021/04/29 08:43:39;;;;;;;0.00;0.00;;;;;;;;;;5033614;28;20041;-73
2021/04/29 08:46:05;;;;;;;0.00;0.00;;;;;;;;;;5043255;28;20276;-73
2021/04/29 08:48:30;;;;;;;0.00;0.00;;;;;;;;;;5042900;28;20096;-74
2021/04/29 08:50:55;;;;;;;0.00;0.00;;;;;;;;;;5022487;28;20029;-74
2021/04/29 08:53:20;;;;;;;0.00;0.00;;;;;;;;;;5042267;28;20679;-74
2021/04/29 08:55:46;;;;;;;0.00;0.00;;;;;;;;;;5023190;28;20057;-73
2021/04/29 08:58:11;;;;;;;0.00;0.00;;;;;;;;;;5026301;28;20026;-74
2021/04/29 09:00:36;;;;;;;0.00;0.00;;;;;;;;;;5031892;28;20021;-74
2021/04/29 09:03:02;;;;;;;0.00;0.00;;;;;;;;;;5028489;28;20033;-74
2021/04/29 09:05:30;;;;;;;0.00;0.00;;;;;;;;;;5032294;28;20014;-74
2021/04/29 09:07:56;;;;;;;0.00;0.00;;;;;;;;;;5030154;28;20505;-74
2021/04/29 09:10:25;;;;;;;0.00;0.00;;;;;;;;;;5051743;28;20017;-73
2021/04/29 09:12:51;;;;;;;0.00;0.00;;;;;;;;;;5032409;28;20100;-74
2021/04/29 09:15:25;;;;;;;0.00;0.00;;;;;;;;;;5033090;28;20041;-76
2021/04/29 09:17:51;;;;;;;0.00;0.00;;;;;;;;;;5046762;28;20161;-76
2021/04/29 09:20:20;;;;;;;0.00;0.00;;;;;;;;;;5032883;28;20021;-76
2021/04/29 09:22:45;;;;;;;0.10;0.10;;;;;;;;;;5048354;28;20021;-76
2021/04/29 09:25:14;;;;;;;0.00;0.00;;;;;;;;;;5031831;28;20377;-75
2021/04/29 09:27:39;;;;;;;0.00;0.00;;;;;;;;;;5030440;28;20843;-76
2021/04/29 09:30:05;;;;;;;0.00;0.00;;;;;;;;;;5028404;28;20025;-75
2021/04/29 09:32:34;;;;;;;0.00;0.00;;;;;;;;;;5047460;28;20676;-75
2021/04/29 09:34:59;;;;;;;0.00;0.00;;;;;;;;;;5031288;28;20025;-75
2021/04/29 09:37:25;;;;;;;0.00;0.00;;;;;;;;;;5026996;28;20106;-76
2021/04/29 09:39:50;;;;;;;0.00;0.00;;;;;;;;;;5044683;28;20021;-75
2021/04/29 09:42:25;;;;;;;0.00;0.00;;;;;;;;;;5044300;28;20465;-75
2021/04/29 09:44:50;;;;;;;0.00;0.00;;;;;;;;;;5043471;28;20071;-76
2021/04/29 09:47:15;;;;;;;0.00;0.00;;;;;;;;;;5046709;28;20025;-75
2021/04/29 09:49:41;;;;;;;0.00;0.00;;;;;;;;;;5044287;28;20276;-74
2021/04/29 09:52:16;;;;;;;0.00;0.00;;;;;;;;;;5043093;28;20267;-75
2021/04/29 09:54:42;;;;;;;0.00;0.00;;;;;;;;;;5030001;28;20260;-75
2021/04/29 09:57:08;;;;;;;0.00;0.00;;;;;;;;;;5049386;28;20032;-75
2021/04/29 09:59:45;;;;;;;0.00;0.00;;;;;;;;;;5028126;28;20021;-75
2021/04/29 10:02:10;;;;;;;0.00;0.00;;;;;;;;;;5030687;28;20029;-75
2021/04/29 10:04:35;;;;;;;0.00;0.00;;;;;;;;;;5046572;28;20028;-74
2021/04/29 10:07:00;;;;;;;0.00;0.00;;;;;;;;;;5071110;28;20044;-76
2021/04/29 10:09:29;;;;;;;0.00;0.00;;;;;;;;;;5068402;28;20040;-76
2021/04/29 10:11:55;;;;;;;0.00;0.00;;;;;;;;;;5061396;28;20044;-75
2021/04/29 10:14:21;;;;;;;0.00;0.00;;;;;;;;;;5057485;28;20025;-75
2021/04/29 10:16:46;;;;;;;0.00;0.00;;;;;;;;;;5047181;28;20076;-76
2021/04/29 10:19:11;;;;;;;0.00;0.00;;;;;;;;;;5043155;28;20025;-76
2021/04/29 10:21:36;;;;;;;0.00;0.00;;;;;;;;;;5028848;28;20020;-75
2021/04/29 10:24:02;;;;;;;0.00;0.00;;;;;;;;;;5026901;28;20644;-76
2021/04/29 10:26:28;;;;;;;0.00;0.00;;;;;;;;;;5044149;28;20017;-77
2021/04/29 10:28:57;;;;;;;0.00;0.00;;;;;;;;;;5046132;28;20101;-77
2021/04/29 10:31:32;;;;;;;0.00;0.00;;;;;;;;;;5045424;28;20049;-77
2021/04/29 10:33:58;;;;;;;0.00;0.00;;;;;;;;;;5045336;28;20051;-77
2021/04/29 10:36:53;;;;;;;0.00;0.00;;;;;;;;;;5026564;28;20092;-77
2021/04/29 10:39:19;;;;;;;0.00;0.00;;;;;;;;;;5034311;28;20041;-76
2021/04/29 10:42:03;;;;;;;0.00;0.00;;;;;;;;;;5033842;28;20029;-76
2021/04/29 10:44:38;;;;;;;0.00;0.00;;;;;;;;;;5045845;28;20148;-76
2021/04/29 10:47:03;;;;;;;0.00;0.00;;;;;;;;;;5043934;28;20104;-76
2021/04/29 10:49:29;;;;;;;0.00;0.00;;;;;;;;;;5043462;28;20107;-77
2021/04/29 10:51:58;;;;;;;0.00;0.00;;;;;;;;;;5041396;28;20060;-77
2021/04/29 10:54:24;;;;;;;0.00;0.00;;;;;;;;;;5024895;28;20123;-76
2021/04/29 10:56:59;;;;;;;0.00;0.00;;;;;;;;;;5023804;28;20100;-76
2021/04/29 10:59:25;;;;;;;0.00;0.00;;;;;;;;;;5044827;28;20124;-76
2021/04/29 11:01:50;;;;;;;0.00;0.00;;;;;;;;;;5040405;28;20108;-75
2021/04/29 11:04:19;;;;;;;0.00;0.00;;;;;;;;;;5026066;28;20432;-76
2021/04/29 11:06:44;;;;;;;0.00;0.00;;;;;;;;;;5042675;28;20272;-76
2021/04/29 11:09:16;;;;;;;0.00;0.00;;;;;;;;;;5045505;28;20017;-76
2021/04/29 11:11:41;;;;;;;0.00;0.00;;;;;;;;;;5025268;28;20075;-75
2021/04/29 11:14:08;;;;;;;0.00;0.00;;;;;;;;;;5026151;28;20016;-75
2021/04/29 11:16:51;;;;;;;0.00;0.00;;;;;;;;;;5026297;28;20025;-75
2021/04/29 11:19:35;;;;;;;0.10;0.10;;;;;;;;;;5042890;28;20040;-75
2021/04/29 11:22:07;;;;;;;0.00;0.00;;;;;;;;;;5044929;28;20021;-75
2021/04/29 11:24:33;;;;;;;0.00;0.00;;;;;;;;;;5041645;28;20021;-75
2021/04/29 11:26:58;;;;;;;0.00;0.00;;;;;;;;;;5044511;28;20027;-75
2021/04/29 11:29:33;;;;;;;0.00;0.00;;;;;;;;;;5025325;28;20120;-75
2021/04/29 11:32:01;;;;;;;0.00;0.00;;;;;;;;;;5041891;28;20278;-72
2021/04/29 11:34:37;;;;;;;0.00;0.00;;;;;;;;;;5018924;28;20212;-71
2021/04/29 11:37:02;;;;;;;0.00;0.00;;;;;;;;;;5029293;28;20068;-72
2021/04/29 11:39:27;;;;;;;0.00;0.00;;;;;;;;;;5054056;28;20020;-72
2021/04/29 11:41:53;;;;;;;0.00;0.00;;;;;;;;;;5036000;28;20021;-71
2021/04/29 11:44:18;;;;;;;0.00;0.00;;;;;;;;;;5052621;28;20382;-72
2021/04/29 11:46:43;;;;;;;0.00;0.00;;;;;;;;;;5035786;28;20118;-72
2021/04/29 11:49:08;;;;;;;0.00;0.00;;;;;;;;;;5034651;28;20264;-72
2021/04/29 11:51:34;;;;;;;0.00;0.00;;;;;;;;;;5032733;28;20021;-71
2021/04/29 11:54:03;;;;;;;0.00;0.00;;;;;;;;;;5024976;28;20079;-71
2021/04/29 11:56:38;;;;;;;0.00;0.00;;;;;;;;;;5045505;28;20086;-70
2021/04/29 11:59:04;;;;;;;0.00;0.00;;;;;;;;;;5049803;28;20108;-70
2021/04/29 12:01:30;;;;;;;0.00;0.00;;;;;;;;;;5035755;28;20037;-71
2021/04/29 12:03:55;;;;;;;0.00;0.00;;;;;;;;;;5047690;28;20025;-72
2021/04/29 12:06:22;;;;;;;0.00;0.00;;;;;;;;;;5040845;28;20025;-72
2021/04/29 12:08:47;;;;;;;0.00;0.00;;;;;;;;;;5043403;28;20355;-73
2021/04/29 12:11:12;;;;;;;0.00;0.00;;;;;;;;;;5038883;28;20104;-72
2021/04/29 12:13:49;;;;;;;0.00;0.00;;;;;;;;;;5034352;28;20317;-72
2021/04/29 12:16:20;;;;;;;0.00;0.00;;;;;;;;;;5025519;28;20040;-72
2021/04/29 12:18:46;;;;;;;0.00;0.00;;;;;;;;;;5027761;28;20116;-72
2021/04/29 12:21:14;;;;;;;0.00;0.00;;;;;;;;;;5026264;28;20108;-71
2021/04/29 12:23:43;;;;;;;0.00;0.00;;;;;;;;;;5042381;28;20021;-72
2021/04/29 12:26:09;;;;;;;0.00;0.00;;;;;;;;;;5045257;28;20029;-73
2021/04/29 12:28:46;;;;;;;0.00;0.00;;;;;;;;;;5044079;28;20032;-74
2021/04/29 12:31:12;;;;;;;0.00;0.00;;;;;;;;;;5026477;28;20661;-74
2021/04/29 12:33:37;;;;;;;0.00;0.00;;;;;;;;;;5039068;28;20025;-73
2021/04/29 12:36:09;;;;;;;0.00;0.00;;;;;;;;;;5019295;28;20056;-73
2021/04/29 12:38:34;;;;;;;0.00;0.00;;;;;;;;;;5003838;28;20037;-73
2021/04/29 12:41:06;;;;;;;0.00;0.00;;;;;;;;;;5002792;28;20590;-73
2021/04/29 12:43:31;;;;;;;0.00;0.00;;;;;;;;;;5003168;28;20486;-73
2021/04/29 12:45:57;;;;;;;0.00;0.00;;;;;;;;;;5006249;28;20022;-74
2021/04/29 12:48:40;;;;;;;0.00;0.00;;;;;;;;;;5002241;28;20072;-73
2021/04/29 12:51:06;;;;;;;0.00;0.00;;;;;;;;;;5004743;28;20023;-73
2021/04/29 12:53:31;;;;;;;0.00;0.00;;;;;;;;;;5004096;28;20792;-73
2021/04/29 12:55:57;;;;;;;0.00;0.00;;;;;;;;;;5006728;28;20033;-72
2021/04/29 12:58:26;;;;;;;0.00;0.00;;;;;;;;;;5004738;28;20116;-72
2021/04/29 13:00:54;;;;;;;0.00;0.00;;;;;;;;;;5002664;28;20116;-72
2021/04/29 13:03:30;;;;;;;0.00;0.00;;;;;;;;;;5004160;28;20018;-71
2021/04/29 13:05:59;;;;;;;0.00;0.00;;;;;;;;;;5012887;28;20026;-71
2021/04/29 13:08:24;;;;;;;0.00;0.00;;;;;;;;;;5002277;28;20375;-71
2021/04/29 13:10:50;;;;;;;0.00;0.00;;;;;;;;;;5006377;28;20049;-71
2021/04/29 13:13:15;;;;;;;0.00;0.00;;;;;;;;;;5004928;28;20301;-71
2021/04/29 13:15:42;;;;;;;0.00;0.00;;;;;;;;;;4987815;28;20299;-70
2021/04/29 13:18:07;;;;;;;0.00;0.00;;;;;;;;;;5005512;28;20352;-71
2021/04/29 13:20:32;;;;;;;0.00;0.00;;;;;;;;;;4991377;28;20121;-71
2021/04/29 13:22:59;;;;;;;0.00;0.00;;;;;;;;;;5003957;28;20384;-71
2021/04/29 13:25:24;;;;;;;0.00;0.00;;;;;;;;;;5004382;28;20447;-70
2021/04/29 13:27:50;;;;;;;0.00;0.00;;;;;;;;;;5005471;28;20262;-71
2021/04/29 13:30:16;;;;;;;0.00;0.00;;;;;;;;;;4989221;28;20108;-71
2021/04/29 13:32:41;;;;;;;0.00;0.00;;;;;;;;;;5000523;28;20101;-71
2021/04/29 13:35:10;;;;;;;0.00;0.00;;;;;;;;;;4987483;28;20030;-71
2021/04/29 13:37:35;;;;;;;0.00;0.00;;;;;;;;;;5026948;28;20041;-71
2021/04/29 13:40:04;;;;;;;0.00;0.00;;;;;;;;;;5023181;28;20033;-71
2021/04/29 13:42:29;;;;;;;0.00;0.00;;;;;;;;;;5043911;28;20183;-71
2021/04/29 13:44:57;;;;;;;0.00;0.00;;;;;;;;;;5044771;28;20398;-72
2021/04/29 13:47:23;;;;;;;0.00;0.00;;;;;;;;;;5040678;28;20264;-72
2021/04/29 13:49:48;;;;;;;0.00;0.00;;;;;;;;;;5027527;28;20023;-72
2021/04/29 13:52:13;;;;;;;0.00;0.00;;;;;;;;;;5045443;28;20121;-71
2021/04/29 13:54:38;;;;;;;0.00;0.00;;;;;;;;;;5043151;28;20087;-70
2021/04/29 13:57:06;;;;;;;0.00;0.00;;;;;;;;;;5042635;28;20079;-70
2021/04/29 13:59:31;;;;;;;0.00;0.00;;;;;;;;;;5042088;28;20423;-71
2021/04/29 14:01:57;;;;;;;0.00;0.00;;;;;;;;;;5030038;28;20028;-71
2021/04/29 14:04:22;;;;;;;0.00;0.00;;;;;;;;;;5045203;28;20482;-71
2021/04/29 14:06:47;;;;;;;0.00;0.00;;;;;;;;;;5043834;28;20025;-71
2021/04/29 14:09:13;;;;;;;0.00;0.00;;;;;;;;;;5024187;28;20036;-70
2021/04/29 14:11:38;;;;;;;0.00;0.00;;;;;;;;;;5042222;28;20017;-70
2021/04/29 14:14:03;;;;;;;0.00;0.00;;;;;;;;;;5026498;28;20021;-71
2021/04/29 14:16:29;;;;;;;0.00;0.00;;;;;;;;;;5023335;28;20028;-72
2021/04/29 14:18:54;;;;;;;0.00;0.00;;;;;;;;;;5029603;28;20029;-71
2021/04/29 14:21:19;;;;;;;0.00;0.00;;;;;;;;;;5025167;28;20466;-71
2021/04/29 14:23:44;;;;;;;0.00;0.00;;;;;;;;;;5028616;28;20032;-72
2021/04/29 14:26:10;;;;;;;0.00;0.00;;;;;;;;;;5042080;28;20529;-72
2021/04/29 14:28:35;;;;;;;0.00;0.00;;;;;;;;;;5028571;28;20029;-71
2021/04/29 14:31:00;;;;;;;0.00;0.00;;;;;;;;;;5026827;28;20273;-71
2021/04/29 14:33:25;;;;;;;0.00;0.00;;;;;;;;;;5026789;28;20271;-71
2021/04/29 14:35:51;;;;;;;0.00;0.00;;;;;;;;;;5028253;28;20055;-72
2021/04/29 14:38:16;;;;;;;0.00;0.00;;;;;;;;;;5042073;28;20445;-72